createdAt,value
2023-03-20T02:18:54.764Z,6.79
2023-03-20T02:19:54.727Z,6.81
2023-03-20T02:20:54.696Z,6.96
2023-03-20T02:21:54.662Z,6.85
2023-03-20T02:22:54.667Z,6.91
2023-03-20T02:23:54.616Z,7.00
2023-03-20T02:24:54.599Z,6.92
2023-03-20T02:25:54.600Z,6.83
2023-03-20T02:26:54.565Z,6.85
2023-03-20T02:27:55.015Z,6.76
2023-03-20T02:28:54.607Z,6.70
2023-03-20T02:29:55.022Z,7.00
2023-03-20T02:30:54.682Z,7.00
2023-03-20T02:31:55.050Z,6.67
2023-03-20T02:32:54.749Z,6.25
2023-03-20T02:33:54.511Z,6.04
2023-03-20T02:34:54.547Z,5.55
2023-03-20T02:35:54.467Z,4.89
2023-03-20T02:36:54.378Z,4.29
2023-03-20T02:37:54.348Z,3.46
2023-03-20T02:38:54.329Z,3.39
2023-03-20T02:39:54.314Z,3.64
2023-03-20T02:40:54.288Z,3.59
2023-03-20T02:41:54.284Z,3.56
2023-03-20T02:42:55.036Z,3.60
2023-03-20T02:43:54.230Z,3.53
2023-03-20T02:44:54.216Z,3.50
2023-03-20T02:45:54.263Z,3.59
2023-03-20T02:46:54.191Z,3.36
2023-03-20T02:47:54.232Z,3.42
2023-03-20T02:48:54.158Z,3.34
2023-03-20T02:49:54.164Z,3.35
2023-03-20T02:50:54.159Z,3.39
2023-03-20T02:51:54.127Z,3.32
2023-03-20T02:52:54.161Z,3.33
2023-03-20T02:53:54.107Z,3.18
2023-03-20T02:54:54.063Z,3.18
2023-03-20T02:55:54.039Z,3.23
2023-03-20T02:56:54.039Z,3.14
2023-03-20T02:57:54.035Z,3.28
2023-03-20T02:58:54.002Z,3.16
2023-03-20T02:59:53.975Z,3.16
2023-03-20T03:00:53.949Z,3.20
2023-03-20T03:01:53.960Z,3.14
2023-03-20T03:02:53.965Z,3.11
2023-03-20T03:03:53.910Z,3.11
2023-03-20T03:04:53.882Z,3.12
2023-03-20T03:05:53.876Z,3.06
2023-03-20T03:06:53.872Z,3.10
2023-03-20T03:07:53.817Z,2.94
2023-03-20T03:08:53.820Z,2.80
2023-03-20T03:09:53.781Z,2.80
2023-03-20T03:10:53.772Z,2.73
2023-03-20T03:11:53.748Z,2.48
2023-03-20T03:12:53.757Z,2.14
2023-03-20T03:13:53.728Z,1.55
2023-03-20T03:14:53.691Z,1.17
2023-03-20T03:15:53.695Z,0.95
2023-03-20T03:16:53.665Z,0.81
2023-03-20T03:17:53.652Z,0.82
2023-03-20T03:18:53.630Z,0.69
2023-03-20T03:19:53.636Z,0.59
2023-03-20T03:20:53.597Z,0.59
2023-03-20T03:21:53.597Z,0.64
2023-03-20T03:22:53.593Z,0.61
2023-03-20T03:23:53.600Z,0.65
2023-03-20T03:24:53.567Z,0.74
2023-03-20T03:25:53.572Z,0.86
2023-03-20T03:26:53.613Z,0.87
2023-03-20T03:27:53.536Z,0.88
2023-03-20T03:28:53.541Z,0.91
2023-03-20T03:29:53.511Z,0.96
2023-03-20T03:30:53.637Z,1.07
2023-03-20T03:31:53.477Z,1.08
2023-03-20T03:32:53.508Z,1.14
2023-03-20T03:33:53.450Z,1.17
2023-03-20T03:34:53.449Z,1.21
2023-03-20T03:35:53.463Z,1.28
2023-03-20T03:36:53.417Z,1.31
2023-03-20T03:37:53.416Z,1.34
2023-03-20T03:38:53.393Z,1.36
2023-03-20T03:39:53.394Z,1.39
2023-03-20T03:40:53.420Z,1.46
2023-03-20T03:41:53.438Z,1.42
2023-03-20T03:42:53.327Z,1.51
2023-03-20T03:43:53.333Z,1.51
2023-03-20T03:44:53.327Z,1.54
2023-03-20T03:45:53.297Z,1.54
2023-03-20T03:46:53.363Z,1.55
2023-03-20T03:47:53.265Z,1.61
2023-03-20T03:48:53.264Z,1.61
2023-03-20T03:49:53.235Z,1.58
2023-03-20T03:50:53.243Z,1.63
2023-03-20T03:51:53.207Z,1.65
2023-03-20T03:52:53.204Z,1.64
2023-03-20T03:53:53.193Z,1.71
2023-03-20T03:54:53.167Z,1.72
2023-03-20T03:55:53.180Z,1.78
2023-03-20T03:56:53.143Z,1.79
2023-03-20T03:57:53.109Z,1.74
2023-03-20T03:58:53.113Z,1.78
2023-03-20T03:59:53.079Z,1.78
2023-03-20T04:00:53.081Z,1.84
2023-03-20T04:01:53.223Z,1.79
2023-03-20T04:02:53.055Z,1.83
2023-03-20T04:03:53.080Z,1.81
2023-03-20T04:04:53.108Z,1.83
2023-03-20T04:05:53.022Z,1.84
2023-03-20T04:06:53.008Z,1.81
2023-03-20T04:07:52.980Z,1.87
2023-03-20T04:08:52.968Z,1.92
2023-03-20T04:09:52.956Z,1.83
2023-03-20T04:10:52.933Z,1.85
2023-03-20T04:11:52.923Z,1.85
2023-03-20T04:12:52.901Z,1.90
2023-03-20T04:13:52.898Z,1.94
2023-03-20T04:14:52.867Z,1.89
2023-03-20T04:15:52.887Z,1.91
2023-03-20T04:16:52.840Z,1.95
2023-03-20T04:17:52.839Z,1.95
2023-03-20T04:18:52.857Z,1.95
2023-03-20T04:19:52.809Z,2.02
2023-03-20T04:20:52.832Z,1.99
2023-03-20T04:21:52.788Z,1.99
2023-03-20T04:22:52.766Z,1.91
2023-03-20T04:23:52.806Z,1.92
2023-03-20T04:24:52.780Z,1.90
2023-03-20T04:25:52.790Z,1.93
2023-03-20T04:26:52.717Z,1.89
2023-03-20T04:27:52.684Z,1.93
2023-03-20T04:28:52.811Z,1.99
2023-03-20T04:29:52.674Z,1.96
2023-03-20T04:30:52.677Z,1.96
2023-03-20T04:31:52.677Z,1.95
2023-03-20T04:32:52.662Z,1.86
2023-03-20T04:33:52.646Z,1.75
2023-03-20T04:34:52.593Z,1.76
2023-03-20T04:35:52.634Z,1.60
2023-03-20T04:36:52.563Z,1.43
2023-03-20T04:37:52.554Z,1.27
2023-03-20T04:38:52.523Z,1.00
2023-03-20T04:39:52.524Z,0.95
2023-03-20T04:40:52.500Z,0.79
2023-03-20T04:41:52.491Z,0.60
2023-03-20T04:42:52.481Z,0.52
2023-03-20T04:43:52.523Z,0.55
2023-03-20T04:44:52.519Z,0.57
2023-03-20T04:45:52.534Z,0.60
2023-03-20T04:46:53.067Z,0.65
2023-03-20T04:47:52.439Z,0.68
2023-03-20T04:48:52.441Z,0.70
2023-03-20T04:49:52.434Z,0.73
2023-03-20T04:50:52.430Z,0.72
2023-03-20T04:51:52.422Z,0.74
2023-03-20T04:52:52.431Z,0.72
2023-03-20T04:53:52.401Z,0.74
2023-03-20T04:54:52.404Z,0.77
2023-03-20T04:55:52.386Z,0.79
2023-03-20T04:56:52.385Z,0.79
2023-03-20T04:57:52.377Z,0.78
2023-03-20T04:58:52.377Z,0.84
2023-03-20T04:59:52.376Z,0.87
2023-03-20T05:00:52.363Z,0.90
2023-03-20T05:01:52.351Z,0.91
2023-03-20T05:02:52.319Z,0.95
2023-03-20T05:03:52.347Z,0.96
2023-03-20T05:04:52.348Z,0.94
2023-03-20T05:05:52.298Z,0.94
2023-03-20T05:06:52.293Z,0.95
2023-03-20T05:07:52.281Z,0.95
2023-03-20T05:08:52.264Z,0.96
2023-03-20T05:09:52.262Z,1.01
2023-03-20T05:10:52.219Z,1.06
2023-03-20T05:11:52.249Z,1.04
2023-03-20T05:12:52.188Z,1.03
2023-03-20T05:13:52.185Z,1.07
2023-03-20T05:14:52.214Z,1.11
2023-03-20T05:15:52.142Z,1.12
2023-03-20T05:16:52.217Z,1.14
2023-03-20T05:17:52.122Z,1.14
2023-03-20T05:18:52.095Z,1.16
2023-03-20T05:19:52.093Z,1.16
2023-03-20T05:20:52.101Z,1.20
2023-03-20T05:21:52.065Z,1.21
2023-03-20T05:22:52.051Z,1.21
2023-03-20T05:23:52.047Z,1.21
2023-03-20T05:24:52.070Z,1.22
2023-03-20T05:25:52.020Z,1.20
2023-03-20T05:26:52.007Z,1.24
2023-03-20T05:27:52.004Z,1.22
2023-03-20T05:28:51.972Z,1.20
2023-03-20T05:29:51.971Z,1.25
2023-03-20T05:30:51.981Z,1.23
2023-03-20T05:31:51.942Z,1.24
2023-03-20T05:32:51.958Z,1.24
2023-03-20T05:33:51.914Z,1.25
2023-03-20T05:34:52.123Z,1.24
2023-03-20T05:35:51.992Z,1.24
2023-03-20T05:36:51.891Z,1.26
2023-03-20T05:37:51.873Z,1.27
2023-03-20T05:38:51.885Z,1.27
2023-03-20T05:39:51.849Z,1.29
2023-03-20T05:40:51.815Z,1.30
2023-03-20T05:41:51.810Z,1.26
2023-03-20T05:42:51.805Z,1.30
2023-03-20T05:43:51.776Z,1.31
2023-03-20T05:44:51.760Z,1.32
2023-03-20T05:45:51.790Z,1.35
2023-03-20T05:46:51.735Z,1.35
2023-03-20T05:47:51.699Z,1.36
2023-03-20T05:48:51.688Z,1.40
2023-03-20T05:49:51.666Z,1.38
2023-03-20T05:50:51.684Z,1.40
2023-03-20T05:51:51.661Z,1.38
2023-03-20T05:52:51.665Z,1.38
2023-03-20T05:53:51.598Z,1.37
2023-03-20T05:54:51.621Z,1.38
2023-03-20T05:55:51.610Z,1.38
2023-03-20T05:56:51.580Z,1.37
2023-03-20T05:57:51.598Z,1.42
2023-03-20T05:58:51.522Z,1.43
2023-03-20T05:59:51.512Z,1.37
2023-03-20T06:00:51.516Z,1.38
2023-03-20T06:01:51.488Z,1.35
2023-03-20T06:02:51.477Z,1.38
2023-03-20T06:03:51.544Z,1.39
2023-03-20T06:04:51.449Z,1.39
2023-03-20T06:05:51.497Z,1.39
2023-03-20T06:06:51.480Z,1.40
2023-03-20T06:07:51.413Z,1.40
2023-03-20T06:08:51.389Z,1.43
2023-03-20T06:09:51.372Z,1.43
2023-03-20T06:10:51.376Z,1.40
2023-03-20T06:11:51.342Z,1.43
2023-03-20T06:12:51.343Z,1.39
2023-03-20T06:13:51.344Z,1.42
2023-03-20T06:14:51.333Z,1.46
2023-03-20T06:15:51.351Z,1.45
2023-03-20T06:16:51.262Z,1.46
2023-03-20T06:17:51.286Z,1.51
2023-03-20T06:18:51.251Z,1.52
2023-03-20T06:19:51.247Z,1.45
2023-03-20T06:20:51.233Z,1.44
2023-03-20T06:21:51.182Z,1.44
2023-03-20T06:22:51.173Z,1.44
2023-03-20T06:23:51.178Z,1.44
2023-03-20T06:24:51.151Z,1.45
2023-03-20T06:25:51.149Z,1.46
2023-03-20T06:26:51.149Z,1.45
2023-03-20T06:27:51.105Z,1.44
2023-03-20T06:28:51.123Z,1.44
2023-03-20T06:29:51.072Z,1.44
2023-03-20T06:30:51.933Z,1.46
2023-03-20T06:31:51.263Z,1.47
2023-03-20T06:32:51.574Z,1.47
2023-03-20T06:33:51.029Z,1.44
2023-03-20T06:34:50.959Z,1.31
2023-03-20T06:35:50.974Z,0.39
2023-03-20T06:36:50.934Z,0.34
2023-03-20T06:37:50.900Z,0.34
2023-03-20T06:38:50.912Z,0.34
2023-03-20T06:39:50.918Z,0.34
2023-03-20T06:40:50.916Z,0.34
2023-03-20T06:41:50.918Z,0.34
2023-03-20T06:42:50.902Z,0.34
2023-03-20T06:43:50.907Z,0.34
2023-03-20T06:44:50.943Z,0.34
2023-03-20T06:45:50.944Z,0.34
2023-03-20T06:46:51.004Z,0.34
2023-03-20T06:47:52.087Z,0.34
2023-03-20T06:48:50.977Z,0.34
2023-03-20T06:49:50.986Z,0.34
2023-03-20T06:50:51.026Z,0.34
2023-03-20T06:51:51.055Z,0.34
2023-03-20T06:52:51.606Z,0.34
2023-03-20T06:53:51.056Z,0.34
2023-03-20T06:54:51.326Z,0.34
2023-03-20T06:55:51.134Z,0.34
2023-03-20T06:56:51.100Z,0.34
2023-03-20T06:57:51.135Z,0.34
2023-03-20T06:58:51.164Z,0.34
2023-03-20T06:59:51.168Z,0.34
2023-03-20T07:00:51.199Z,0.34
2023-03-20T07:01:51.361Z,0.34
2023-03-20T07:02:51.270Z,0.34
2023-03-20T07:03:51.461Z,0.34
2023-03-20T07:04:51.403Z,0.34
2023-03-20T07:05:51.333Z,0.34
2023-03-20T07:06:51.317Z,0.34
2023-03-20T07:07:51.322Z,0.34
2023-03-20T07:08:51.376Z,0.41
2023-03-20T07:09:51.598Z,0.49
2023-03-20T07:10:51.684Z,0.50
2023-03-20T07:11:51.513Z,0.52
2023-03-20T07:12:51.494Z,0.54
2023-03-20T07:13:51.520Z,0.59
2023-03-20T07:14:51.530Z,0.59
2023-03-20T07:16:03.773Z,0.56
2023-03-20T07:16:52.807Z,0.55
2023-03-20T07:17:51.615Z,0.55
2023-03-20T07:18:51.647Z,0.55
2023-03-20T07:19:51.658Z,0.54
2023-03-20T07:20:52.162Z,0.53
2023-03-20T07:21:51.726Z,0.54
2023-03-20T07:22:51.791Z,0.52
2023-03-20T07:23:51.854Z,0.51
2023-03-20T07:24:51.808Z,0.50
2023-03-20T07:25:51.978Z,0.51
2023-03-20T07:26:51.881Z,0.52
2023-03-20T07:27:51.909Z,0.52
2023-03-20T07:28:51.935Z,0.52
2023-03-20T07:29:51.971Z,0.51
2023-03-20T07:30:52.029Z,0.53
2023-03-20T07:31:52.090Z,0.52
2023-03-20T07:32:52.157Z,0.52
2023-03-20T07:33:52.109Z,0.52
2023-03-20T07:34:53.118Z,0.52
2023-03-20T07:35:52.208Z,0.53
2023-03-20T07:36:52.185Z,0.54
2023-03-20T07:37:52.219Z,0.56
2023-03-20T07:38:52.218Z,0.61
2023-03-20T07:39:52.254Z,0.64
2023-03-20T07:40:52.260Z,0.66
2023-03-20T07:41:52.494Z,0.65
2023-03-20T07:42:52.360Z,0.65
2023-03-20T07:43:52.328Z,0.67
2023-03-20T07:44:52.364Z,0.69
2023-03-20T07:45:52.475Z,0.71
2023-03-20T07:46:53.151Z,0.75
2023-03-20T07:47:52.501Z,0.76
2023-03-20T07:48:52.583Z,0.76
2023-03-20T07:49:52.580Z,0.77
2023-03-20T07:50:52.545Z,0.79
2023-03-20T07:51:52.595Z,0.83
2023-03-20T07:52:52.645Z,0.98
2023-03-20T07:53:52.667Z,1.10
2023-03-20T07:54:53.644Z,1.23
2023-03-20T07:55:52.694Z,1.31
2023-03-20T07:56:52.727Z,1.34
2023-03-20T07:57:52.829Z,1.35
2023-03-20T07:58:52.799Z,1.30
2023-03-20T07:59:52.771Z,1.67
2023-03-20T08:00:54.557Z,1.90
2023-03-20T08:01:52.830Z,2.54
2023-03-20T08:02:52.940Z,3.41
2023-03-20T08:03:53.030Z,5.05
2023-03-20T08:04:52.872Z,6.35
2023-03-20T08:05:52.877Z,7.01
2023-03-20T08:29:40.614Z,1.76
2023-03-20T08:30:40.576Z,1.85
2023-03-20T08:31:40.433Z,1.95
2023-03-20T08:32:40.435Z,2.10
2023-03-20T08:33:40.311Z,2.15
2023-03-20T08:34:40.258Z,2.16
2023-03-20T08:35:40.226Z,2.18
2023-03-20T08:36:40.109Z,2.17
2023-03-20T08:37:40.037Z,2.25
2023-03-20T08:38:40.020Z,2.38
2023-03-20T08:39:39.924Z,2.65
2023-03-20T08:40:39.833Z,2.88
2023-03-20T08:41:39.803Z,2.67
2023-03-20T08:42:39.713Z,2.73
2023-03-20T08:43:39.868Z,2.72
2023-03-20T08:44:39.614Z,2.75
2023-03-20T08:45:39.521Z,2.40
2023-03-20T08:46:39.440Z,2.40
2023-03-20T08:47:40.660Z,2.37
2023-03-20T08:48:39.326Z,2.42
2023-03-20T08:49:39.370Z,2.45
2023-03-20T08:50:39.229Z,2.61
2023-03-20T08:51:39.157Z,2.82
2023-03-20T08:52:39.139Z,2.82
2023-03-20T08:53:38.989Z,2.83
2023-03-20T08:54:38.936Z,2.90
2023-03-20T08:55:39.015Z,2.95
2023-03-20T08:56:39.011Z,3.25
2023-03-20T08:57:38.717Z,2.83
2023-03-20T08:58:38.630Z,2.68
2023-03-20T08:59:38.538Z,2.53
2023-03-20T09:00:38.507Z,2.70
2023-03-20T09:01:48.746Z,2.88
2023-03-20T09:02:39.482Z,2.88
2023-03-20T09:03:38.263Z,2.74
2023-03-20T09:04:38.242Z,2.62
2023-03-20T09:05:38.388Z,2.58
2023-03-20T09:06:38.102Z,2.72
2023-03-20T09:07:37.994Z,2.32
2023-03-20T09:08:37.932Z,2.48
2023-03-20T09:09:37.814Z,2.35
2023-03-20T09:10:37.733Z,2.43
2023-03-20T09:11:37.723Z,2.37
2023-03-20T09:12:38.488Z,2.29
2023-03-20T09:13:37.777Z,2.39
2023-03-20T09:15:37.753Z,2.43
2023-03-20T09:16:37.293Z,2.56
2023-03-20T09:17:37.211Z,2.86
2023-03-20T09:18:37.103Z,3.34
2023-03-20T09:19:37.026Z,3.32
2023-03-20T09:20:37.269Z,3.54
2023-03-20T09:21:36.958Z,3.53
2023-03-20T09:22:36.844Z,3.47
2023-03-20T09:23:36.749Z,3.69
2023-03-20T09:24:36.658Z,3.58
2023-03-20T09:25:36.920Z,3.65
2023-03-20T09:26:36.498Z,3.82
2023-03-20T09:28:36.369Z,4.45
2023-03-20T09:29:36.316Z,4.76
2023-03-20T09:30:36.554Z,4.64
2023-03-20T09:31:36.244Z,4.90
2023-03-20T09:32:36.147Z,4.81
2023-03-20T09:33:36.005Z,4.11
2023-03-20T09:34:35.985Z,3.55
2023-03-20T09:35:35.873Z,4.08
2023-03-20T09:36:35.834Z,4.37
2023-03-20T09:38:35.798Z,4.41
2023-03-20T09:39:35.496Z,3.66
2023-03-20T09:40:35.697Z,3.68
2023-03-20T09:41:42.767Z,3.59
2023-03-20T09:42:36.320Z,3.59
2023-03-20T09:43:35.206Z,2.79
2023-03-20T09:44:35.170Z,2.96
2023-03-20T09:45:35.959Z,3.19
2023-03-20T09:46:35.111Z,1.97
2023-03-20T09:47:35.497Z,1.84
2023-03-20T09:48:34.922Z,2.11
2023-03-20T09:49:34.853Z,2.27
2023-03-20T09:50:35.085Z,1.92
2023-03-20T09:51:34.670Z,2.06
2023-03-20T09:52:34.602Z,2.18
2023-03-20T09:53:34.538Z,2.27
2023-03-20T09:54:50.760Z,2.05
2023-03-20T09:55:35.865Z,2.05
2023-03-20T09:56:34.360Z,2.06
2023-03-20T09:57:34.274Z,2.11
2023-03-20T09:58:34.205Z,2.09
2023-03-20T09:59:34.140Z,2.13
2023-03-20T10:00:34.588Z,2.06
2023-03-20T10:01:34.011Z,2.08
2023-03-20T10:02:33.906Z,2.10
2023-03-20T10:03:33.831Z,2.17
2023-03-20T10:04:33.782Z,2.29
2023-03-20T10:05:33.832Z,2.37
2023-03-20T10:06:33.634Z,2.55
2023-03-20T10:07:33.566Z,2.53
2023-03-20T10:08:33.472Z,2.51
2023-03-20T10:09:33.466Z,2.52
2023-03-20T10:10:33.351Z,2.57
2023-03-20T10:11:33.954Z,2.53
2023-03-20T10:12:33.214Z,2.61
2023-03-20T10:13:33.102Z,2.71
2023-03-20T10:14:33.039Z,2.63
2023-03-20T10:15:32.963Z,2.44
2023-03-20T10:16:33.001Z,2.47
2023-03-20T10:17:32.796Z,2.48
2023-03-20T10:18:32.733Z,2.68
2023-03-20T10:19:32.679Z,2.81
2023-03-20T10:20:32.569Z,3.02
2023-03-20T10:21:32.498Z,2.76
2023-03-20T10:22:32.397Z,2.95
2023-03-20T10:23:32.353Z,3.01
2023-03-20T10:24:32.259Z,3.24
2023-03-20T10:25:32.180Z,3.25
2023-03-20T10:26:32.094Z,3.34
2023-03-20T10:27:32.005Z,3.66
2023-03-20T10:28:31.963Z,4.49
2023-03-20T10:29:31.859Z,5.62
2023-03-20T10:30:31.765Z,5.76
2023-03-20T10:31:31.721Z,5.87
2023-03-20T10:32:31.627Z,6.00
2023-03-20T10:33:31.525Z,5.84
2023-03-20T10:34:31.456Z,5.34
2023-03-20T10:35:31.467Z,5.54
2023-03-20T10:36:31.290Z,5.82
2023-03-20T10:37:31.288Z,5.77
2023-03-20T10:38:31.136Z,5.54
2023-03-20T10:39:31.060Z,5.72
2023-03-20T10:40:31.988Z,5.67
2023-03-20T10:41:30.939Z,3.80
2023-03-20T10:42:30.928Z,4.45
2023-03-20T10:43:30.756Z,4.38
2023-03-20T10:44:31.472Z,4.33
2023-03-20T10:45:30.593Z,4.43
2023-03-20T10:46:30.555Z,4.32
2023-03-20T10:47:30.510Z,4.37
2023-03-20T10:48:30.395Z,3.98
2023-03-20T10:49:30.324Z,4.00
2023-03-20T10:50:30.186Z,4.07
2023-03-20T10:51:30.128Z,4.15
2023-03-20T10:52:30.099Z,4.39
2023-03-20T10:53:29.973Z,4.74
2023-03-20T10:54:29.855Z,5.21
2023-03-20T10:55:29.793Z,3.21
2023-03-20T10:56:29.739Z,3.44
2023-03-20T10:57:29.622Z,3.82
2023-03-20T10:58:29.642Z,4.75
2023-03-20T10:59:29.488Z,5.63
2023-03-20T11:00:34.341Z,4.86
2023-03-20T11:01:29.464Z,4.53
2023-03-20T11:02:29.335Z,4.44
2023-03-20T11:03:29.244Z,4.22
2023-03-20T11:04:29.144Z,4.63
2023-03-20T11:05:28.991Z,5.24
2023-03-20T11:06:28.990Z,5.43
2023-03-20T11:07:29.475Z,4.79
2023-03-20T11:08:28.753Z,5.67
2023-03-20T11:09:28.693Z,6.54
2023-03-20T11:10:28.622Z,6.98
2023-03-20T11:11:28.523Z,7.01
2023-03-20T11:12:29.076Z,7.06
2023-03-20T11:13:28.491Z,7.02
2023-03-20T11:14:31.605Z,7.11
2023-03-20T11:15:28.970Z,7.07
2023-03-20T11:16:28.253Z,7.50
2023-03-20T11:17:28.158Z,8.07
2023-03-20T11:18:28.127Z,8.38
2023-03-20T11:19:28.055Z,8.04
2023-03-20T11:20:28.265Z,8.13
2023-03-20T11:21:27.852Z,6.74
2023-03-20T11:22:27.764Z,6.36
2023-03-20T11:23:27.694Z,6.09
2023-03-20T11:24:27.617Z,5.89
2023-03-20T11:25:27.549Z,5.90
2023-03-20T11:34:43.867Z,0.50
2023-03-20T11:35:43.842Z,0.50
2023-03-20T11:36:43.820Z,0.50
2023-03-20T11:37:43.779Z,0.50
2023-03-20T11:38:43.735Z,0.50
2023-03-20T11:39:43.727Z,0.50
2023-03-20T11:40:43.733Z,0.50
2023-03-20T11:41:43.676Z,0.50
2023-03-20T11:42:43.630Z,0.50
2023-03-20T11:43:44.548Z,0.51
2023-03-20T11:44:43.542Z,0.52
2023-03-20T11:45:43.599Z,0.50
2023-03-20T11:46:44.321Z,0.51
2023-03-20T11:47:44.053Z,0.53
2023-03-20T11:48:43.434Z,0.54
2023-03-20T11:49:43.425Z,0.54
2023-03-20T11:50:43.366Z,0.56
2023-03-20T11:51:43.332Z,0.57
2023-03-20T11:52:43.349Z,0.56
2023-03-20T11:53:43.267Z,0.56
2023-03-20T11:54:43.262Z,0.52
2023-03-20T11:55:43.206Z,0.51
2023-03-20T11:56:43.177Z,0.51
2023-03-20T11:57:44.485Z,0.52
2023-03-20T11:58:43.132Z,0.54
2023-03-20T11:59:43.156Z,0.53
2023-03-20T12:00:44.088Z,0.56
2023-03-20T12:01:43.043Z,0.56
2023-03-20T12:02:43.066Z,0.56
2023-03-20T12:03:43.222Z,0.54
2023-03-20T12:04:43.036Z,0.53
2023-03-20T12:05:42.928Z,0.55
2023-03-20T12:06:42.873Z,0.57
2023-03-20T12:07:42.949Z,0.58
2023-03-20T12:08:42.865Z,0.59
2023-03-20T12:09:42.818Z,0.59
2023-03-20T12:10:42.812Z,0.60
2023-03-20T12:11:42.719Z,0.57
2023-03-20T12:12:42.704Z,0.62
2023-03-20T12:13:42.693Z,0.63
2023-03-20T12:14:42.669Z,0.62
2023-03-20T12:15:42.677Z,0.64
2023-03-20T12:16:43.262Z,0.63
2023-03-20T12:17:42.569Z,0.63
2023-03-20T12:18:42.537Z,0.62
2023-03-20T12:19:42.551Z,0.61
2023-03-20T12:20:42.506Z,0.59
2023-03-20T12:21:42.522Z,0.58
2023-03-20T12:22:42.447Z,0.57
2023-03-20T12:23:42.400Z,0.56
2023-03-20T12:24:42.410Z,0.57
2023-03-20T12:25:43.103Z,0.52
2023-03-20T12:26:42.344Z,0.52
2023-03-20T12:27:42.476Z,0.52
2023-03-20T12:28:42.285Z,0.54
2023-03-20T12:29:42.280Z,0.54
2023-03-20T12:30:42.280Z,0.56
2023-03-20T12:31:42.213Z,0.57
2023-03-20T12:32:42.283Z,0.58
2023-03-20T12:33:42.197Z,0.60
2023-03-20T12:34:43.089Z,0.63
2023-03-20T12:35:42.193Z,0.63
2023-03-20T12:36:42.118Z,0.65
2023-03-20T12:37:42.072Z,0.67
2023-03-20T12:38:42.020Z,0.70
2023-03-20T12:39:41.988Z,0.69
2023-03-20T12:40:41.998Z,0.68
2023-03-20T12:41:41.967Z,0.69
2023-03-20T12:42:41.991Z,0.69
2023-03-20T12:43:41.902Z,0.71
2023-03-20T12:44:41.850Z,0.74
2023-03-20T12:45:44.733Z,0.73
2023-03-20T12:46:41.836Z,0.74
2023-03-20T12:47:41.820Z,0.75
2023-03-20T12:48:41.743Z,0.75
2023-03-20T12:49:41.731Z,0.76
2023-03-20T12:50:41.699Z,0.80
2023-03-20T12:51:41.678Z,0.77
2023-03-20T12:52:41.632Z,0.71
2023-03-20T12:53:41.715Z,0.77
2023-03-20T12:54:41.603Z,0.78
2023-03-20T12:55:41.561Z,0.72
2023-03-20T12:56:41.543Z,0.76
2023-03-20T12:57:41.517Z,0.77
2023-03-20T12:58:41.477Z,0.74
2023-03-20T12:59:41.438Z,0.71
2023-03-20T13:00:41.623Z,0.69
2023-03-20T13:01:41.433Z,0.65
2023-03-20T13:02:41.418Z,0.62
2023-03-20T13:03:41.356Z,0.65
2023-03-20T13:04:41.590Z,0.68
2023-03-20T13:05:41.325Z,0.64
2023-03-20T13:06:41.290Z,0.66
2023-03-20T13:07:41.237Z,0.70
2023-03-20T13:08:41.193Z,0.69
2023-03-20T13:09:43.660Z,0.70
2023-03-20T13:10:41.150Z,0.71
2023-03-20T13:11:41.111Z,0.71
2023-03-20T13:12:41.095Z,0.71
2023-03-20T13:13:41.326Z,0.67
2023-03-20T13:14:41.061Z,0.65
2023-03-20T13:15:41.598Z,0.64
2023-03-20T13:16:41.122Z,0.66
2023-03-20T13:17:41.053Z,0.63
2023-03-20T13:18:40.937Z,0.59
2023-03-20T13:19:41.611Z,0.57
2023-03-20T13:20:40.908Z,0.59
2023-03-20T13:21:40.915Z,0.57
2023-03-20T13:22:40.969Z,0.54
2023-03-20T13:23:40.803Z,0.56
2023-03-20T13:24:40.776Z,0.58
2023-03-20T13:25:40.813Z,0.59
2023-03-20T13:26:40.730Z,0.58
2023-03-20T13:27:40.701Z,0.60
2023-03-20T13:28:40.704Z,0.62
2023-03-20T13:29:40.657Z,0.64
2023-03-20T13:30:40.643Z,0.65
2023-03-20T13:31:41.687Z,0.65
2023-03-20T13:32:40.616Z,0.65
2023-03-20T13:33:40.572Z,0.63
2023-03-20T13:34:40.508Z,0.62
2023-03-20T13:35:40.546Z,0.59
2023-03-20T13:36:40.551Z,0.57
2023-03-20T13:37:40.480Z,0.56
2023-03-20T13:38:40.415Z,0.56
2023-03-20T13:39:40.373Z,0.57
2023-03-20T13:40:40.338Z,0.56
2023-03-20T13:41:40.347Z,0.56
2023-03-20T13:42:40.320Z,0.60
2023-03-20T13:43:40.280Z,0.60
2023-03-20T13:44:40.214Z,0.62
2023-03-20T13:45:40.222Z,0.62
2023-03-20T13:46:40.669Z,0.61
2023-03-20T13:47:40.135Z,0.61
2023-03-20T13:48:40.083Z,0.61
2023-03-20T13:49:40.193Z,0.59
2023-03-20T13:50:40.065Z,0.40
2023-03-20T13:51:40.001Z,0.34
2023-03-20T13:52:39.983Z,0.34
2023-03-20T13:53:39.996Z,0.34
2023-03-20T13:54:39.955Z,0.34
2023-03-20T13:55:39.921Z,0.34
2023-03-20T13:56:39.974Z,0.34
2023-03-20T13:57:39.924Z,0.34
2023-03-20T13:58:39.864Z,0.34
2023-03-20T13:59:40.112Z,0.34
2023-03-20T14:00:40.149Z,0.34
2023-03-20T14:01:39.838Z,0.34
2023-03-20T14:02:39.829Z,0.34
2023-03-20T14:03:39.843Z,0.34
2023-03-20T14:04:39.802Z,0.34
2023-03-20T14:05:39.772Z,0.34
2023-03-20T14:06:39.852Z,0.34
2023-03-20T14:07:39.837Z,0.34
2023-03-20T14:08:39.767Z,0.34
2023-03-20T14:09:39.830Z,0.34
2023-03-20T14:10:40.056Z,0.34
2023-03-20T14:11:39.711Z,0.34
2023-03-20T14:12:40.182Z,0.34
2023-03-20T14:13:39.700Z,0.34
2023-03-20T14:14:39.708Z,0.34
2023-03-20T14:15:39.683Z,0.34
2023-03-20T14:16:39.648Z,0.34
2023-03-20T14:17:39.648Z,0.34
2023-03-20T14:18:39.633Z,0.34
2023-03-20T14:19:39.606Z,0.34
2023-03-20T14:20:39.628Z,0.34
2023-03-20T14:21:39.765Z,0.34
2023-03-20T14:22:39.615Z,0.34
2023-03-20T14:23:39.602Z,0.34
2023-03-20T14:24:39.590Z,0.34
2023-03-20T14:25:40.593Z,0.34
2023-03-20T14:26:39.594Z,0.34
2023-03-20T14:27:44.839Z,0.34
2023-03-20T14:28:39.926Z,0.34
2023-03-20T14:29:39.790Z,0.34
2023-03-20T14:30:39.770Z,0.34
2023-03-20T14:31:39.770Z,0.39
2023-03-20T14:32:39.818Z,0.44
2023-03-20T14:33:39.816Z,0.65
2023-03-20T14:34:39.750Z,0.71
2023-03-20T14:35:39.879Z,0.93
2023-03-20T14:36:39.767Z,1.17
2023-03-20T14:37:40.698Z,1.40
2023-03-20T14:38:39.650Z,1.76
2023-03-20T14:39:39.618Z,1.53
2023-03-20T14:40:39.641Z,1.94
2023-03-20T14:41:39.644Z,2.26
2023-03-20T14:42:40.047Z,2.72
2023-03-20T14:43:39.554Z,2.73
2023-03-20T14:44:39.653Z,2.79
2023-03-20T14:45:39.604Z,2.66
2023-03-20T14:46:39.499Z,2.89
2023-03-20T14:47:39.488Z,1.59
2023-03-20T14:48:39.499Z,1.56
2023-03-20T14:49:39.408Z,1.51
2023-03-20T14:50:39.755Z,1.18
2023-03-20T14:51:39.407Z,1.05
2023-03-20T14:52:39.396Z,0.96
2023-03-20T14:53:39.360Z,0.97
2023-03-20T14:54:39.404Z,0.82
2023-03-20T14:55:40.122Z,0.79
2023-03-20T14:56:39.275Z,0.79
2023-03-20T14:57:55.170Z,0.71
2023-03-20T14:58:42.142Z,0.72
2023-03-20T14:59:40.117Z,0.73
2023-03-20T15:00:39.203Z,0.78
2023-03-20T15:01:39.203Z,0.90
2023-03-20T15:02:39.712Z,0.77
2023-03-20T15:03:39.150Z,0.74
2023-03-20T15:04:39.122Z,0.71
2023-03-20T15:05:39.090Z,0.67
2023-03-20T15:06:39.069Z,0.70
2023-03-20T15:07:39.634Z,0.72
2023-03-20T15:08:39.036Z,0.78
2023-03-20T15:09:39.001Z,0.93
2023-03-20T15:10:39.392Z,1.21
2023-03-20T15:11:38.981Z,1.34
2023-03-20T15:12:38.946Z,2.08
2023-03-20T15:13:38.991Z,2.75
2023-03-20T15:14:39.762Z,3.35
2023-03-20T15:15:38.863Z,2.00
2023-03-20T15:16:38.894Z,2.89
2023-03-20T15:17:38.852Z,2.57
2023-03-20T15:18:38.864Z,2.79
2023-03-20T15:19:38.828Z,2.84
2023-03-20T15:20:39.042Z,2.50
2023-03-20T15:21:38.765Z,3.12
2023-03-20T15:22:38.719Z,2.99
2023-03-20T15:23:38.705Z,3.12
2023-03-20T15:24:38.656Z,3.26
2023-03-20T15:25:38.634Z,3.36
2023-03-20T15:26:38.638Z,3.65
2023-03-20T15:27:38.596Z,4.08
2023-03-20T15:28:38.611Z,4.11
2023-03-20T15:29:38.560Z,3.49
2023-03-20T15:30:38.853Z,3.40
2023-03-20T15:31:38.533Z,4.30
2023-03-20T15:32:38.504Z,5.17
2023-03-20T15:33:38.477Z,5.55
2023-03-20T15:34:38.483Z,5.69
2023-03-20T15:35:38.427Z,5.32
2023-03-20T15:36:38.454Z,4.91
2023-03-20T15:37:38.390Z,5.58
2023-03-20T15:38:38.362Z,4.95
2023-03-20T15:39:38.303Z,5.69
2023-03-20T15:40:50.018Z,5.50
2023-03-20T15:41:39.242Z,5.52
2023-03-20T15:42:38.250Z,5.58
2023-03-20T15:43:38.214Z,5.66
2023-03-20T15:44:38.136Z,6.30
2023-03-20T15:45:38.860Z,7.37
2023-03-20T15:46:38.081Z,7.21
2023-03-20T15:47:38.030Z,7.94
2023-03-20T15:48:38.047Z,7.20
2023-03-20T15:49:38.013Z,8.05
2023-03-20T15:50:38.429Z,7.62
2023-03-20T15:51:37.936Z,8.00
2023-03-20T15:52:37.905Z,7.64
2023-03-20T15:53:37.895Z,7.98
2023-03-20T15:54:37.891Z,8.29
2023-03-20T15:55:37.963Z,8.30
2023-03-20T15:56:37.937Z,8.43
2023-03-20T15:57:38.702Z,8.68
2023-03-20T15:58:37.775Z,9.33
2023-03-20T15:59:37.781Z,10.42
2023-03-20T16:00:38.003Z,11.02
2023-03-20T16:01:37.657Z,11.81
2023-03-20T16:02:37.634Z,13.15
2023-03-20T16:03:37.602Z,14.88
2023-03-20T16:04:37.573Z,14.24
2023-03-20T16:05:37.554Z,15.28
2023-03-20T16:06:37.664Z,13.83
2023-03-20T16:07:37.531Z,13.58
2023-03-20T16:08:37.827Z,13.38
2023-03-20T16:09:37.520Z,13.49
2023-03-20T16:10:37.720Z,14.23